Time;durP1;ratioP1;P1;durP2;ratioP2;P2;SDS_P1;SDS_P2;PMS_P1;PMS_P2;Temp;Humidity;BMP_temperature;BMP_pressure;BME280_temperature;BME280_humidity;BME280_pressure;Samples;Min_cycle;Max_cycle;Signal;HPM_P1;HPM_P2
2023/05/17 00:01:18;;;;;;;18.05;8.73;;;8.70;99.90;;;;;;4989430;28;20042;-80
2023/05/17 00:03:47;;;;;;;18.98;9.20;;;8.60;99.90;;;;;;4995052;28;20065;-80
2023/05/17 00:06:12;;;;;;;20.75;9.48;;;8.50;99.90;;;;;;4992235;28;20034;-80
2023/05/17 00:08:41;;;;;;;20.45;9.70;;;8.40;99.90;;;;;;4995250;28;20037;-80
2023/05/17 00:11:14;;;;;;;25.08;10.80;;;8.40;99.90;;;;;;4995227;28;20050;-80
2023/05/17 00:13:42;;;;;;;25.73;10.75;;;8.40;99.90;;;;;;4994037;28;20045;-80
2023/05/17 00:16:08;;;;;;;24.35;10.43;;;8.40;99.90;;;;;;4995193;28;20477;-80
2023/05/17 00:18:42;;;;;;;17.83;9.43;;;8.40;99.90;;;;;;4996442;28;20076;-80
2023/05/17 00:21:08;;;;;;;23.17;11.18;;;8.20;99.90;;;;;;4994943;28;20080;-81
2023/05/17 00:23:36;;;;;;;21.75;10.07;;;8.30;99.90;;;;;;4994050;28;20038;-79
2023/05/17 00:26:02;;;;;;;24.85;11.40;;;8.20;99.90;;;;;;4993668;28;20397;-80
2023/05/17 00:28:30;;;;;;;22.98;10.75;;;8.10;99.90;;;;;;5011648;28;20049;-80
2023/05/17 00:30:56;;;;;;;25.95;11.63;;;8.20;99.90;;;;;;4986599;28;20056;-79
2023/05/17 00:33:24;;;;;;;22.08;10.63;;;8.20;99.90;;;;;;5010653;28;20120;-79
2023/05/17 00:35:49;;;;;;;23.23;10.35;;;8.10;99.90;;;;;;4984812;28;20042;-80
2023/05/17 00:38:28;;;;;;;;;;;;;;;;;;;;;
2023/05/17 00:40:54;;;;;;;26.77;9.25;;;8.10;99.90;;;;;;4994281;28;20393;-79
2023/05/17 00:43:20;;;;;;;22.23;8.05;;;8.00;99.90;;;;;;4994212;28;20041;-80
2023/05/17 00:45:47;;;;;;;21.52;8.07;;;8.00;99.90;;;;;;4994029;28;20042;-80
2023/05/17 00:48:13;;;;;;;20.55;7.00;;;8.00;99.90;;;;;;4992020;28;20093;-79
2023/05/17 00:50:40;;;;;;;21.65;7.03;;;7.90;99.90;;;;;;4983908;28;20073;-81
2023/05/17 00:53:08;;;;;;;23.83;7.10;;;7.90;99.90;;;;;;5010408;28;20077;-80
2023/05/17 00:55:37;;;;;;;22.52;7.13;;;7.80;99.90;;;;;;4994683;28;20096;-80
2023/05/17 00:58:03;;;;;;;24.60;6.80;;;7.80;99.90;;;;;;5011322;28;20499;-80
2023/05/17 01:00:32;;;;;;;19.42;6.60;;;7.80;99.90;;;;;;5017431;28;20049;-80
2023/05/17 01:02:58;;;;;;;21.70;6.93;;;7.60;99.90;;;;;;5000358;28;20042;-80
2023/05/17 01:05:27;;;;;;;19.90;7.20;;;7.50;99.90;;;;;;4993522;28;20037;-81
2023/05/17 01:07:55;;;;;;;23.73;7.15;;;7.50;99.90;;;;;;4985541;28;20380;-80
2023/05/17 01:10:36;;;;;;;18.30;6.63;;;7.30;99.90;;;;;;4993857;28;20073;-80
2023/05/17 01:13:14;;;;;;;22.27;6.72;;;7.30;99.90;;;;;;5014028;28;20048;-80
2023/05/17 01:15:56;;;;;;;19.95;6.20;;;7.10;99.90;;;;;;4997105;28;20073;-80
2023/05/17 01:18:40;;;;;;;20.42;6.88;;;7.00;99.90;;;;;;4987319;28;20042;-81
2023/05/17 01:21:34;;;;;;;19.40;6.50;;;6.90;99.90;;;;;;4996765;28;20038;-80
2023/05/17 01:24:25;;;;;;;22.10;6.55;;;6.80;99.90;;;;;;4987049;28;20041;-80
2023/05/17 01:26:55;;;;;;;21.75;7.25;;;6.60;99.90;;;;;;4997930;28;20038;-81
2023/05/17 01:29:25;;;;;;;18.95;6.35;;;6.60;99.90;;;;;;4998307;28;20038;-80
2023/05/17 01:31:51;;;;;;;22.88;7.25;;;6.50;99.90;;;;;;4998146;28;20088;-80
2023/05/17 01:34:29;;;;;;;24.98;6.97;;;6.40;99.90;;;;;;4992861;28;20440;-80
2023/05/17 01:36:56;;;;;;;19.30;6.22;;;6.30;99.90;;;;;;5011305;28;20106;-80
2023/05/17 01:39:22;;;;;;;20.70;6.38;;;6.20;99.90;;;;;;4989532;28;20039;-80
2023/05/17 01:42:06;;;;;;;24.42;6.63;;;6.10;99.90;;;;;;4980547;28;20461;-80
2023/05/17 01:44:50;;;;;;;21.02;6.70;;;6.00;99.90;;;;;;5006784;28;20040;-80
2023/05/17 01:47:28;;;;;;;19.05;6.28;;;6.00;99.90;;;;;;4991546;28;20093;-80
2023/05/17 01:49:59;;;;;;;21.98;6.53;;;5.90;99.90;;;;;;4999440;28;20568;-80
2023/05/17 01:52:37;;;;;;;21.75;6.72;;;5.80;99.90;;;;;;5015890;28;20042;-80
2023/05/17 01:55:27;;;;;;;23.60;7.20;;;5.80;99.90;;;;;;5004916;28;20045;-80
2023/05/17 01:57:54;;;;;;;24.02;7.07;;;5.70;99.90;;;;;;4998572;28;20041;-80
2023/05/17 02:00:24;;;;;;;21.52;6.45;;;5.60;99.90;;;;;;4995667;28;20108;-79
2023/05/17 02:02:50;;;;;;;20.10;6.03;;;5.60;99.90;;;;;;5011791;28;20037;-80
2023/05/17 02:05:16;;;;;;;17.42;6.95;;;5.50;99.90;;;;;;4993021;28;20136;-80
2023/05/17 02:07:42;;;;;;;22.08;7.32;;;5.50;99.90;;;;;;4998649;28;20044;-80
2023/05/17 02:10:08;;;;;;;22.30;6.55;;;5.40;99.90;;;;;;4998535;28;20044;-79
2023/05/17 02:12:34;;;;;;;20.40;6.45;;;5.40;99.90;;;;;;4998615;28;20041;-80
2023/05/17 02:14:59;;;;;;;20.83;7.15;;;5.30;99.90;;;;;;4994460;28;20404;-80
2023/05/17 02:17:28;;;;;;;19.77;6.60;;;5.30;99.90;;;;;;4992165;28;20473;-80
2023/05/17 02:19:54;;;;;;;28.20;7.32;;;5.20;99.90;;;;;;4978917;28;20050;-80
2023/05/17 02:22:19;;;;;;;23.63;7.13;;;5.10;99.90;;;;;;4977811;28;20042;-79
2023/05/17 02:24:48;;;;;;;24.70;7.40;;;5.10;99.90;;;;;;4986395;28;20444;-80
2023/05/17 02:27:13;;;;;;;28.15;8.13;;;5.00;99.90;;;;;;4994411;28;20457;-80
2023/05/17 02:29:39;;;;;;;20.65;7.72;;;5.00;99.90;;;;;;4978521;28;20084;-80
2023/05/17 02:32:10;;;;;;;24.88;8.00;;;5.00;99.90;;;;;;4978294;28;20050;-80
2023/05/17 02:34:36;;;;;;;28.58;7.68;;;5.00;99.90;;;;;;4983998;28;20041;-80
2023/05/17 02:37:02;;;;;;;28.80;8.05;;;5.00;99.90;;;;;;5013311;28;20100;-80
2023/05/17 02:39:28;;;;;;;27.80;7.95;;;4.90;99.90;;;;;;4997467;28;20128;-81
2023/05/17 02:41:56;;;;;;;25.35;7.70;;;4.90;99.90;;;;;;4997378;28;20124;-80
2023/05/17 02:44:22;;;;;;;20.65;7.43;;;4.90;99.90;;;;;;4995742;28;20070;-80
2023/05/17 02:46:48;;;;;;;26.67;8.52;;;4.90;99.90;;;;;;4993730;28;20097;-80
2023/05/17 02:49:14;;;;;;;22.83;8.18;;;4.90;99.90;;;;;;4977905;28;20089;-79
2023/05/17 02:51:40;;;;;;;25.92;9.65;;;4.90;99.90;;;;;;4977416;28;20061;-80
2023/05/17 02:54:05;;;;;;;26.35;9.10;;;4.90;99.90;;;;;;4989178;28;20460;-79
2023/05/17 02:56:31;;;;;;;28.70;9.00;;;4.90;99.90;;;;;;4995991;28;20069;-80
2023/05/17 02:59:00;;;;;;;30.67;10.20;;;5.00;99.90;;;;;;4997436;28;20103;-80
2023/05/17 03:01:26;;;;;;;29.05;9.88;;;5.10;99.90;;;;;;5012850;28;20037;-79
2023/05/17 03:03:52;;;;;;;26.52;10.60;;;5.20;99.90;;;;;;4996808;28;20400;-80
2023/05/17 03:06:18;;;;;;;27.63;9.40;;;5.30;99.90;;;;;;4996702;28;20038;-80
2023/05/17 03:08:44;;;;;;;23.70;10.35;;;5.40;99.90;;;;;;5013474;28;20526;-80
2023/05/17 03:11:09;;;;;;;27.55;10.27;;;5.50;99.90;;;;;;5012302;28;20033;-79
2023/05/17 03:13:35;;;;;;;26.73;9.82;;;5.50;99.90;;;;;;5012033;28;20492;-79
2023/05/17 03:16:01;;;;;;;29.30;9.77;;;5.60;99.90;;;;;;4996483;28;20045;-80
2023/05/17 03:18:26;;;;;;;24.70;8.88;;;5.60;99.90;;;;;;4997075;28;20042;-80
2023/05/17 03:20:54;;;;;;;23.15;8.05;;;5.60;99.90;;;;;;5013454;28;20112;-80
2023/05/17 03:23:20;;;;;;;29.20;9.38;;;5.50;99.90;;;;;;4996180;28;20407;-80
2023/05/17 03:25:46;;;;;;;22.65;7.95;;;5.50;99.90;;;;;;4994995;28;20120;-80
2023/05/17 03:28:11;;;;;;;23.10;8.50;;;5.40;99.90;;;;;;4984699;28;20043;-80
2023/05/17 03:30:37;;;;;;;27.25;8.57;;;5.40;99.90;;;;;;4976825;28;20074;-80
2023/05/17 03:33:03;;;;;;;25.88;9.05;;;5.30;99.90;;;;;;4994119;28;20042;-80
2023/05/17 03:35:29;;;;;;;30.38;9.68;;;5.30;99.90;;;;;;4988947;28;20100;-79
2023/05/17 03:37:54;;;;;;;28.98;9.60;;;5.30;99.90;;;;;;5010868;28;20069;-80
2023/05/17 03:40:23;;;;;;;31.98;9.50;;;5.30;99.90;;;;;;4977195;28;20042;-80
2023/05/17 03:42:49;;;;;;;22.55;9.10;;;5.30;99.90;;;;;;4976674;28;20053;-80
2023/05/17 03:45:15;;;;;;;24.70;9.43;;;5.30;99.90;;;;;;4995205;28;20480;-80
2023/05/17 03:47:41;;;;;;;26.60;9.90;;;5.30;99.90;;;;;;4988431;28;20034;-80
2023/05/17 03:50:08;;;;;;;23.90;9.75;;;5.30;99.90;;;;;;4996150;28;20124;-80
2023/05/17 03:52:34;;;;;;;25.73;10.00;;;5.30;99.90;;;;;;4996094;28;20052;-81
2023/05/17 03:55:00;;;;;;;25.88;8.98;;;5.40;99.90;;;;;;4994383;28;20046;-79
2023/05/17 03:57:25;;;;;;;33.63;9.05;;;5.30;99.90;;;;;;4991308;28;20213;-80
2023/05/17 03:59:51;;;;;;;23.45;9.32;;;5.30;99.90;;;;;;4977053;28;20512;-80
2023/05/17 04:02:17;;;;;;;26.05;8.77;;;5.30;99.90;;;;;;4976700;28;20046;-80
2023/05/17 04:04:49;;;;;;;25.23;8.50;;;5.30;99.90;;;;;;5007825;28;20149;-80
2023/05/17 04:07:15;;;;;;;;;;;5.30;99.90;;;;;;4992856;28;20044;-80
2023/05/17 04:09:44;;;;;;;24.33;8.57;;;5.30;99.90;;;;;;5008421;28;19924;-80
2023/05/17 04:12:10;;;;;;;21.58;7.90;;;5.30;99.90;;;;;;4996129;28;20064;-80
2023/05/17 04:14:41;;;;;;;23.60;9.27;;;5.30;99.90;;;;;;4988260;28;20053;-80
2023/05/17 04:17:07;;;;;;;28.83;9.30;;;5.30;99.90;;;;;;4989454;28;20132;-80
2023/05/17 04:19:33;;;;;;;25.05;8.30;;;5.30;99.90;;;;;;4995889;28;20038;-80
2023/05/17 04:21:59;;;;;;;21.60;8.15;;;5.30;99.90;;;;;;4995747;28;20404;-80
2023/05/17 04:24:25;;;;;;;30.52;9.75;;;5.40;99.90;;;;;;4995618;28;20034;-80
2023/05/17 04:26:51;;;;;;;22.58;8.63;;;5.40;99.90;;;;;;5002298;28;20107;-80
2023/05/17 04:29:17;;;;;;;22.05;8.38;;;5.40;99.90;;;;;;4995954;28;20053;-80
2023/05/17 04:31:42;;;;;;;31.85;9.20;;;5.50;99.90;;;;;;4996060;28;20169;-80
2023/05/17 04:34:08;;;;;;;25.13;8.88;;;5.40;99.90;;;;;;5004160;28;20042;-80
2023/05/17 04:36:37;;;;;;;29.75;10.13;;;5.40;99.90;;;;;;5014449;28;20042;-79
2023/05/17 04:39:03;;;;;;;22.98;8.38;;;5.50;99.90;;;;;;4997253;28;20050;-80
2023/05/17 04:41:30;;;;;;;25.88;8.25;;;5.60;99.90;;;;;;4997478;28;20050;-80
2023/05/17 04:43:56;;;;;;;23.63;8.35;;;5.70;99.90;;;;;;4996182;28;20508;-80
2023/05/17 04:46:27;;;;;;;25.15;8.25;;;5.80;99.90;;;;;;4998445;28;20034;-80
2023/05/17 04:48:54;;;;;;;24.40;8.10;;;5.90;99.90;;;;;;4993072;28;20041;-80
2023/05/17 04:51:20;;;;;;;27.65;7.82;;;5.90;99.90;;;;;;5017465;28;20041;-80
2023/05/17 04:53:46;;;;;;;25.55;7.97;;;6.00;99.90;;;;;;5000860;28;20048;-79
2023/05/17 04:56:12;;;;;;;24.67;8.07;;;6.10;99.90;;;;;;5016074;28;20040;-80
2023/05/17 04:58:37;;;;;;;18.90;6.60;;;6.10;99.90;;;;;;4993673;28;20042;-80
2023/05/17 05:01:04;;;;;;;23.50;7.40;;;6.20;99.90;;;;;;4980337;28;20092;-80
2023/05/17 05:03:30;;;;;;;22.27;6.93;;;6.30;99.90;;;;;;5006828;28;20031;-80
2023/05/17 05:05:56;;;;;;;15.85;5.72;;;6.40;99.90;;;;;;5013287;28;20484;-80
2023/05/17 05:08:24;;;;;;;22.52;6.28;;;7.10;99.90;;;;;;5000699;28;20063;-79
2023/05/17 05:10:53;;;;;;;20.25;5.47;;;7.70;99.90;;;;;;4999397;28;20556;-80
2023/05/17 05:13:18;;;;;;;17.80;5.00;;;8.50;99.90;;;;;;4996022;28;20641;-80
2023/05/17 05:15:44;;;;;;;19.00;4.97;;;9.10;99.90;;;;;;4999246;28;20488;-80
2023/05/17 05:18:10;;;;;;;16.27;4.63;;;9.50;99.90;;;;;;4996648;28;20069;-80
2023/05/17 05:20:35;;;;;;;14.60;4.00;;;10.10;99.90;;;;;;4980542;28;20042;-80
2023/05/17 05:23:04;;;;;;;14.95;4.15;;;10.80;99.90;;;;;;5000342;28;20034;-80
2023/05/17 05:25:30;;;;;;;15.45;3.70;;;11.20;99.90;;;;;;5016518;28;20034;-80
2023/05/17 05:27:59;;;;;;;13.73;4.05;;;11.00;99.90;;;;;;5016594;28;20046;-80
2023/05/17 05:30:25;;;;;;;17.70;3.60;;;10.50;99.90;;;;;;4998847;28;20042;-80
2023/05/17 05:32:54;;;;;;;13.57;3.45;;;10.10;99.90;;;;;;4997932;28;20033;-80
2023/05/17 05:35:25;;;;;;;12.68;3.30;;;9.80;99.90;;;;;;4999168;28;20052;-80
2023/05/17 05:37:50;;;;;;;12.40;3.50;;;9.60;99.90;;;;;;4983853;28;20038;-80
2023/05/17 05:40:16;;;;;;;13.98;3.38;;;9.50;99.90;;;;;;4980814;28;20420;-80
2023/05/17 05:42:42;;;;;;;12.98;3.17;;;9.30;99.90;;;;;;4983567;28;20052;-80
2023/05/17 05:45:10;;;;;;;13.90;3.40;;;9.10;99.90;;;;;;5009473;28;20132;-80
2023/05/17 05:47:35;;;;;;;11.57;3.13;;;8.90;99.90;;;;;;4999689;28;20038;-80
2023/05/17 05:50:01;;;;;;;13.52;3.35;;;8.60;99.90;;;;;;5016688;28;20105;-82
2023/05/17 05:52:27;;;;;;;12.02;3.35;;;8.50;99.90;;;;;;5001072;28;20046;-81
2023/05/17 05:54:53;;;;;;;10.77;3.00;;;8.40;99.90;;;;;;5001303;28;20118;-80
2023/05/17 05:57:19;;;;;;;10.55;2.70;;;8.30;99.90;;;;;;5000615;28;20046;-80
2023/05/17 05:59:53;;;;;;;14.07;3.28;;;8.30;99.90;;;;;;5015788;28;20038;-81
2023/05/17 06:02:20;;;;;;;12.77;3.20;;;8.30;99.90;;;;;;4992124;28;20046;-80
2023/05/17 06:04:47;;;;;;;14.02;3.30;;;8.30;99.90;;;;;;5016978;28;20056;-81
2023/05/17 06:07:13;;;;;;;15.07;4.15;;;8.50;99.90;;;;;;4999598;28;20069;-80
2023/05/17 06:09:40;;;;;;;14.07;3.00;;;8.60;99.90;;;;;;4998314;28;20119;-79
2023/05/17 06:12:06;;;;;;;11.63;3.10;;;8.80;99.90;;;;;;4999579;28;20045;-80
2023/05/17 06:14:37;;;;;;;12.00;3.00;;;8.90;99.90;;;;;;4995287;28;20433;-79
2023/05/17 06:17:06;;;;;;;11.07;3.20;;;9.20;99.90;;;;;;4997523;28;20124;-79
2023/05/17 06:19:38;;;;;;;12.32;2.55;;;9.40;99.90;;;;;;4997447;28;20045;-80
2023/05/17 06:22:03;;;;;;;10.98;2.80;;;9.50;99.90;;;;;;4994823;28;20054;-79
2023/05/17 06:24:32;;;;;;;11.35;2.47;;;9.70;99.90;;;;;;5005855;28;20033;-79
2023/05/17 06:27:04;;;;;;;10.43;2.80;;;9.80;99.90;;;;;;4988025;28;20536;-78
2023/05/17 06:29:38;;;;;;;9.70;2.60;;;10.00;99.90;;;;;;4991260;28;20031;-79
2023/05/17 06:32:16;;;;;;;10.48;2.58;;;10.10;99.90;;;;;;4990265;28;20044;-79
2023/05/17 06:34:48;;;;;;;11.75;2.45;;;10.30;99.90;;;;;;5008106;28;20128;-80
2023/05/17 06:37:17;;;;;;;14.05;3.17;;;10.50;99.90;;;;;;4995164;28;20038;-79
2023/05/17 06:39:46;;;;;;;11.95;3.10;;;10.70;99.90;;;;;;4991712;28;20034;-79
2023/05/17 06:42:14;;;;;;;10.60;2.40;;;10.90;99.90;;;;;;4995299;28;20042;-79
2023/05/17 06:44:46;;;;;;;10.82;2.60;;;11.20;99.90;;;;;;4996865;28;20134;-80
2023/05/17 06:47:12;;;;;;;10.65;3.25;;;11.40;99.90;;;;;;5011475;28;20050;-79
2023/05/17 06:49:48;;;;;;;9.77;2.67;;;11.50;99.90;;;;;;4996826;28;20045;-80
2023/05/17 06:52:14;;;;;;;;;;;11.60;99.90;;;;;;5013772;28;20430;-79
2023/05/17 06:55:01;;;;;;;9.40;2.17;;;11.70;99.90;;;;;;4996157;28;19943;-80
2023/05/17 06:58:03;;;;;;;9.95;2.22;;;11.70;99.90;;;;;;4968051;28;20412;-80
2023/05/17 07:01:03;;;;;;;11.05;3.00;;;11.70;99.90;;;;;;5012520;28;20050;-80
2023/05/17 07:04:10;;;;;;;10.02;2.40;;;11.60;99.90;;;;;;4993802;28;20045;-79
2023/05/17 07:06:54;;;;;;;10.10;2.40;;;11.60;99.90;;;;;;4994866;28;20124;-80
2023/05/17 07:09:29;;;;;;;7.70;2.10;;;11.80;99.90;;;;;;4991903;28;20432;-79
2023/05/17 07:12:08;;;;;;;11.57;2.30;;;11.90;99.90;;;;;;4985950;28;20035;-81
2023/05/17 07:14:36;;;;;;;11.18;2.55;;;11.90;99.90;;;;;;4991219;28;20050;-80
2023/05/17 07:17:04;;;;;;;9.60;2.50;;;12.00;99.90;;;;;;4987629;28;20130;-80
2023/05/17 07:19:30;;;;;;;11.52;2.42;;;11.90;99.90;;;;;;4977284;28;20097;-80
2023/05/17 07:22:04;;;;;;;12.93;2.60;;;12.00;99.90;;;;;;4977726;28;20038;-80
2023/05/17 07:24:36;;;;;;;9.90;2.25;;;12.00;99.90;;;;;;4990970;28;20034;-80
2023/05/17 07:27:10;;;;;;;11.05;2.78;;;12.00;99.90;;;;;;4987238;28;20137;-80
2023/05/17 07:29:41;;;;;;;13.68;2.40;;;12.20;99.90;;;;;;4981172;28;20130;-79
2023/05/17 07:32:11;;;;;;;13.10;3.05;;;12.30;99.90;;;;;;4996568;28;20043;-80
2023/05/17 07:34:42;;;;;;;8.73;2.25;;;12.30;99.90;;;;;;5002341;28;20029;-80
2023/05/17 07:37:08;;;;;;;12.20;3.03;;;12.30;99.90;;;;;;5001397;28;20042;-80
2023/05/17 07:39:33;;;;;;;10.20;2.28;;;12.50;99.90;;;;;;5002643;28;20046;-79
2023/05/17 07:41:59;;;;;;;10.13;2.88;;;12.50;99.90;;;;;;5002341;28;20100;-79
2023/05/17 07:47:23;;;;;;;12.55;2.15;;;12.60;99.90;;;;;;5011549;28;20042;-80
2023/05/17 07:49:54;;;;;;;11.05;2.83;;;12.80;99.90;;;;;;4992477;28;20046;-80
2023/05/17 07:52:22;;;;;;;12.13;2.55;;;13.00;99.90;;;;;;4981793;28;20045;-79
2023/05/17 07:54:51;;;;;;;11.93;2.50;;;13.20;99.90;;;;;;4982096;28;20054;-80
2023/05/17 07:57:19;;;;;;;10.13;2.67;;;13.40;99.90;;;;;;4995376;28;20128;-80
2023/05/17 07:59:50;;;;;;;13.70;2.63;;;13.70;99.90;;;;;;4985366;28;20041;-80
2023/05/17 08:02:19;;;;;;;12.43;2.92;;;14.00;99.90;;;;;;4980510;28;20416;-80
2023/05/17 08:04:51;;;;;;;12.43;2.92;;;14.10;99.90;;;;;;4979898;28;20038;-80
2023/05/17 08:07:16;;;;;;;11.00;2.58;;;14.10;83.60;;;;;;4994465;28;20061;-79
2023/05/17 08:09:51;;;;;;;13.63;3.47;;;13.90;99.90;;;;;;4997062;28;20042;-80
2023/05/17 08:12:20;;;;;;;9.50;2.80;;;14.30;90.00;;;;;;4996898;28;20041;-80
2023/05/17 08:14:45;;;;;;;11.65;2.97;;;14.70;91.40;;;;;;4983256;28;20041;-79
2023/05/17 08:17:11;;;;;;;14.75;2.90;;;14.90;85.10;;;;;;5010075;28;20396;-80
2023/05/17 08:19:40;;;;;;;12.38;2.75;;;14.90;85.10;;;;;;4989589;28;20038;-81
2023/05/17 08:22:15;;;;;;;13.05;2.78;;;14.70;90.50;;;;;;5012014;28;20126;-80
2023/05/17 08:24:40;;;;;;;10.30;2.70;;;14.60;93.40;;;;;;4995131;28;20045;-80
2023/05/17 08:27:09;;;;;;;11.15;2.55;;;14.40;83.60;;;;;;4979374;28;20409;-80
2023/05/17 08:29:41;;;;;;;11.32;2.70;;;14.00;83.00;;;;;;4983092;28;20042;-79
2023/05/17 08:32:12;;;;;;;10.23;2.50;;;13.60;79.70;;;;;;4996245;28;20045;-81
2023/05/17 08:34:42;;;;;;;8.82;2.50;;;13.90;76.60;;;;;;4997145;28;20584;-80
2023/05/17 08:37:11;;;;;;;11.57;2.47;;;14.70;72.90;;;;;;4996042;28;20065;-80
2023/05/17 08:39:36;;;;;;;10.93;2.55;;;15.40;71.60;;;;;;4997049;28;20065;-78
2023/05/17 08:42:09;;;;;;;8.93;2.50;;;16.30;72.20;;;;;;4996978;28;20488;-80
2023/05/17 08:44:38;;;;;;;11.13;2.72;;;17.00;71.80;;;;;;5013186;28;20037;-80
2023/05/17 08:47:10;;;;;;;11.23;2.58;;;16.90;67.00;;;;;;4986423;28;20069;-80
2023/05/17 08:49:36;;;;;;;8.18;2.63;;;16.30;65.80;;;;;;4977222;28;20038;-79
2023/05/17 08:52:08;;;;;;;10.48;2.70;;;15.60;65.50;;;;;;4977066;28;20125;-81
2023/05/17 08:54:36;;;;;;;9.80;2.70;;;15.40;68.80;;;;;;5008985;28;20045;-81
2023/05/17 08:57:07;;;;;;;9.98;3.30;;;16.00;65.60;;;;;;5011580;28;20042;-79
2023/05/17 08:59:34;;;;;;;8.68;2.67;;;16.30;66.50;;;;;;4990472;28;20051;-80
2023/05/17 09:02:04;;;;;;;9.77;2.40;;;16.60;67.00;;;;;;4977367;28;20038;-79
2023/05/17 09:04:32;;;;;;;9.05;2.30;;;16.60;65.00;;;;;;4997279;28;20419;-80
2023/05/17 09:06:59;;;;;;;9.13;2.53;;;16.50;63.90;;;;;;4995504;28;20044;-80
2023/05/17 09:09:25;;;;;;;9.10;2.70;;;16.10;64.70;;;;;;4977307;28;20038;-80
2023/05/17 09:11:54;;;;;;;9.50;2.95;;;15.70;66.50;;;;;;4977038;28;20141;-80
2023/05/17 09:14:35;;;;;;;11.65;2.78;;;15.80;65.70;;;;;;4978889;28;20143;-80
2023/05/17 09:17:01;;;;;;;11.40;2.67;;;16.50;67.40;;;;;;4994959;28;20049;-80
2023/05/17 09:19:30;;;;;;;8.45;2.50;;;17.50;61.90;;;;;;4996168;28;20046;-80
2023/05/17 09:21:59;;;;;;;7.80;2.30;;;17.80;57.80;;;;;;4997147;28;20049;-80
2023/05/17 09:24:29;;;;;;;8.10;2.20;;;18.00;60.80;;;;;;4997290;28;20030;-80
2023/05/17 09:27:03;;;;;;;10.25;2.58;;;18.40;62.30;;;;;;4997885;28;20479;-80
2023/05/17 09:29:32;;;;;;;6.07;2.35;;;18.90;62.40;;;;;;4998413;28;20045;-80
2023/05/17 09:32:19;;;;;;;10.35;2.53;;;19.70;57.60;;;;;;5015256;28;20073;-80
2023/05/17 09:34:50;;;;;;;8.13;2.20;;;20.00;59.60;;;;;;4999784;28;20038;-81
2023/05/17 09:37:18;;;;;;;9.75;2.47;;;19.60;59.20;;;;;;4993353;28;20029;-80
2023/05/17 09:39:45;;;;;;;10.45;2.85;;;19.10;57.40;;;;;;5000905;28;20129;-80
2023/05/17 09:42:13;;;;;;;13.27;2.83;;;18.40;58.70;;;;;;4999416;28;20060;-80
2023/05/17 09:44:52;;;;;;;8.88;2.47;;;17.80;60.60;;;;;;4989805;28;20499;-80
2023/05/17 09:47:28;;;;;;;7.70;2.38;;;17.50;63.60;;;;;;5008483;28;20181;-80
2023/05/17 09:49:59;;;;;;;9.40;2.80;;;17.30;60.40;;;;;;5000202;28;20056;-80
2023/05/17 09:52:30;;;;;;;8.30;2.45;;;17.10;62.70;;;;;;4997466;28;20040;-80
2023/05/17 09:54:57;;;;;;;10.38;3.08;;;17.00;63.90;;;;;;4982163;28;20121;-79
2023/05/17 09:57:27;;;;;;;10.13;2.60;;;17.10;66.60;;;;;;4995654;28;20121;-79
2023/05/17 10:00:02;;;;;;;11.13;2.65;;;17.10;64.90;;;;;;4979925;28;20046;-79
2023/05/17 10:02:34;;;;;;;11.75;2.60;;;17.00;62.80;;;;;;4996292;28;20078;-80
2023/05/17 10:05:04;;;;;;;9.23;2.58;;;16.80;62.20;;;;;;4996515;28;20046;-79
2023/05/17 10:07:30;;;;;;;8.60;2.85;;;16.70;63.90;;;;;;4980676;28;20053;-80
2023/05/17 10:09:57;;;;;;;9.75;2.90;;;16.50;62.70;;;;;;4982172;28;20050;-80
2023/05/17 10:12:26;;;;;;;11.23;2.72;;;16.20;62.90;;;;;;4999127;28;20044;-79
2023/05/17 10:14:54;;;;;;;10.30;2.97;;;15.90;62.30;;;;;;5000520;28;20072;-80
2023/05/17 10:17:23;;;;;;;9.82;3.13;;;15.70;62.20;;;;;;5001275;28;20045;-79
2023/05/17 10:19:50;;;;;;;11.18;2.90;;;15.90;61.20;;;;;;5000113;28;20471;-80
2023/05/17 10:22:20;;;;;;;10.98;2.70;;;16.10;64.40;;;;;;4998776;28;20088;-80
2023/05/17 10:24:57;;;;;;;11.05;3.10;;;16.80;66.20;;;;;;5004135;28;20094;-80
2023/05/17 10:27:27;;;;;;;10.10;2.90;;;17.70;61.30;;;;;;4990911;28;20034;-80
2023/05/17 10:29:54;;;;;;;10.38;2.72;;;17.90;60.30;;;;;;4981072;28;20133;-80
2023/05/17 10:32:25;;;;;;;9.02;2.55;;;17.70;58.70;;;;;;5016290;28;20037;-80
2023/05/17 10:34:54;;;;;;;10.10;2.78;;;17.40;62.10;;;;;;4983439;28;20117;-80
2023/05/17 10:37:21;;;;;;;11.27;3.08;;;17.50;62.60;;;;;;4980344;28;20128;-80
2023/05/17 10:39:51;;;;;;;11.07;3.40;;;17.50;61.30;;;;;;4980048;28;20089;-80
2023/05/17 10:42:18;;;;;;;12.40;2.67;;;17.40;60.60;;;;;;4998725;28;20036;-80
2023/05/17 10:44:43;;;;;;;12.02;2.67;;;17.70;62.40;;;;;;4983460;28;20043;-80
2023/05/17 10:47:13;;;;;;;10.43;3.35;;;18.50;56.60;;;;;;4980772;28;20042;-81
2023/05/17 10:49:40;;;;;;;13.18;3.20;;;18.60;60.60;;;;;;4981639;28;20049;-80
2023/05/17 10:52:16;;;;;;;10.95;2.70;;;18.80;60.10;;;;;;4996704;28;20034;-80
2023/05/17 10:54:43;;;;;;;10.63;2.80;;;18.70;58.10;;;;;;4995629;28;20085;-78
2023/05/17 10:57:19;;;;;;;10.85;2.60;;;18.30;58.00;;;;;;4977716;28;20046;-78
2023/05/17 10:59:59;;;;;;;10.27;2.97;;;17.80;59.40;;;;;;4977936;28;20042;-78
2023/05/17 11:02:26;;;;;;;12.27;3.03;;;17.00;62.10;;;;;;4995796;28;20152;-78
2023/05/17 11:04:54;;;;;;;13.90;4.03;;;16.60;64.80;;;;;;4980947;28;20046;-78
2023/05/17 11:07:23;;;;;;;10.07;2.85;;;16.50;66.80;;;;;;4978997;28;20396;-78
2023/05/17 11:10:09;;;;;;;9.98;3.10;;;16.90;64.30;;;;;;4978680;28;20049;-78
2023/05/17 11:12:37;;;;;;;15.50;3.35;;;17.60;67.80;;;;;;4996829;28;20088;-78
2023/05/17 11:15:12;;;;;;;11.88;3.22;;;18.60;64.80;;;;;;4979059;28;20129;-78
2023/05/17 11:17:52;;;;;;;11.20;2.78;;;19.50;58.30;;;;;;4978818;28;20046;-78
2023/05/17 11:20:24;;;;;;;11.38;3.10;;;20.00;56.90;;;;;;4997550;28;20049;-79
2023/05/17 11:22:58;;;;;;;7.97;2.85;;;19.80;56.70;;;;;;5013346;28;20125;-80
2023/05/17 11:25:28;;;;;;;12.27;2.88;;;19.80;59.30;;;;;;5016137;28;20107;-80
2023/05/17 11:27:54;;;;;;;9.77;2.58;;;19.60;59.70;;;;;;4999940;28;20038;-80
2023/05/17 11:30:25;;;;;;;7.53;2.72;;;19.20;56.90;;;;;;4999137;28;20041;-80
2023/05/17 11:33:02;;;;;;;9.57;2.53;;;18.60;58.30;;;;;;4982812;28;20065;-80
2023/05/17 11:35:37;;;;;;;9.70;2.55;;;18.10;57.40;;;;;;4980657;28;20135;-80
2023/05/17 11:38:21;;;;;;;12.30;2.90;;;17.40;60.00;;;;;;4979393;28;20046;-80
2023/05/17 11:40:53;;;;;;;7.30;2.67;;;17.40;61.80;;;;;;4987003;28;20140;-80
2023/05/17 11:43:21;;;;;;;9.63;2.58;;;18.20;66.00;;;;;;4995762;28;20122;-79
2023/05/17 11:46:01;;;;;;;8.48;2.60;;;19.50;57.10;;;;;;4995547;28;20038;-80
2023/05/17 11:48:30;;;;;;;11.13;2.53;;;19.70;53.40;;;;;;4998483;28;20541;-80
2023/05/17 11:50:56;;;;;;;8.02;2.78;;;19.00;54.30;;;;;;4990999;28;20091;-80
2023/05/17 11:53:27;;;;;;;7.68;2.38;;;18.50;55.50;;;;;;4999028;28;20077;-80
2023/05/17 11:55:56;;;;;;;13.90;2.80;;;17.90;55.80;;;;;;4998617;28;20041;-80
2023/05/17 11:58:26;;;;;;;7.15;2.50;;;17.70;59.00;;;;;;4997558;28;20038;-80
2023/05/17 12:01:03;;;;;;;8.18;2.70;;;18.10;58.80;;;;;;4981623;28;20456;-80
2023/05/17 12:03:30;;;;;;;9.35;2.65;;;18.50;60.50;;;;;;4979675;28;20038;-80
2023/05/17 12:06:12;;;;;;;10.85;2.65;;;19.10;55.70;;;;;;4979839;28;20042;-80
2023/05/17 12:08:43;;;;;;;8.13;2.38;;;19.50;57.50;;;;;;4995340;28;20064;-81
2023/05/17 12:11:15;;;;;;;9.43;2.15;;;19.40;58.40;;;;;;4999420;28;20420;-80
2023/05/17 12:13:42;;;;;;;8.30;2.17;;;19.20;55.80;;;;;;4999604;28;20046;-80
2023/05/17 12:16:16;;;;;;;9.88;2.58;;;19.00;55.70;;;;;;5015274;28;20451;-80
2023/05/17 12:18:48;;;;;;;8.52;2.50;;;19.30;55.40;;;;;;4997112;28;20034;-80
2023/05/17 12:21:19;;;;;;;8.27;2.55;;;19.70;56.10;;;;;;4999772;28;20040;-80
2023/05/17 12:23:49;;;;;;;7.95;2.30;;;20.30;57.00;;;;;;5002669;28;20034;-81
2023/05/17 12:26:17;;;;;;;8.60;2.67;;;20.50;52.60;;;;;;5008030;28;20135;-80
2023/05/17 12:28:53;;;;;;;7.18;1.88;;;19.70;52.20;;;;;;5007933;28;20034;-80
2023/05/17 12:31:27;;;;;;;8.60;2.25;;;19.00;54.90;;;;;;5002764;28;20148;-81
2023/05/17 12:34:07;;;;;;;;;;;19.00;53.70;;;;;;5015780;28;20512;-80
2023/05/17 12:36:36;;;;;;;9.05;2.70;;;19.40;54.10;;;;;;4999419;28;20442;-80
2023/05/17 12:39:08;;;;;;;9.70;2.70;;;19.80;55.20;;;;;;4991705;28;20115;-80
2023/05/17 12:41:38;;;;;;;6.05;1.90;;;20.40;54.40;;;;;;4984724;28;20061;-80
2023/05/17 12:44:07;;;;;;;7.18;2.38;;;20.60;54.20;;;;;;4979764;28;20038;-80
2023/05/17 12:46:33;;;;;;;7.47;2.28;;;20.90;52.40;;;;;;4998366;28;20033;-80
2023/05/17 12:49:07;;;;;;;8.18;2.17;;;21.10;53.50;;;;;;5012168;28;20079;-79
2023/05/17 12:51:46;;;;;;;6.93;2.42;;;21.60;53.70;;;;;;4989861;28;20173;-79
2023/05/17 12:54:24;;;;;;;7.88;2.50;;;22.10;53.80;;;;;;4977031;28;20085;-79
2023/05/17 12:56:50;;;;;;;8.63;2.45;;;22.50;52.90;;;;;;4978803;28;20112;-79
2023/05/17 12:59:24;;;;;;;7.25;1.85;;;22.90;51.20;;;;;;4984267;28;20034;-79
2023/05/17 13:01:52;;;;;;;10.10;2.17;;;22.80;46.80;;;;;;4992696;28;20041;-79